createdAt,value
2022-10-03T00:02:37.572Z,11.55
2022-10-03T00:12:37.541Z,11.48
2022-10-03T00:22:37.521Z,11.31
2022-10-03T00:32:37.527Z,11.26
2022-10-03T00:42:37.486Z,11.11
2022-10-03T00:52:37.529Z,10.84
2022-10-03T01:02:37.539Z,10.71
2022-10-03T01:12:37.515Z,10.52
2022-10-03T01:22:37.471Z,10.29
2022-10-03T01:32:37.511Z,10.16
2022-10-03T01:42:37.489Z,10.12
2022-10-03T01:52:37.497Z,9.99
2022-10-03T02:02:37.470Z,9.84
2022-10-03T02:12:37.463Z,9.81
2022-10-03T02:22:37.476Z,9.64
2022-10-03T02:32:37.487Z,9.43
2022-10-03T02:42:37.447Z,9.23
2022-10-03T02:52:37.482Z,9.17
2022-10-03T03:02:37.438Z,9.34
2022-10-03T03:12:41.189Z,9.67
2022-10-03T03:22:37.424Z,9.74
2022-10-03T03:32:37.439Z,9.75
2022-10-03T03:42:37.429Z,9.74
2022-10-03T03:52:37.459Z,9.85
2022-10-03T04:02:37.435Z,9.98
2022-10-03T04:12:37.436Z,9.86
2022-10-03T04:22:37.394Z,9.84
2022-10-03T04:32:37.425Z,9.8
2022-10-03T04:42:37.384Z,9.66
2022-10-03T04:52:37.458Z,9.62
2022-10-03T05:02:37.436Z,9.62
2022-10-03T05:12:37.446Z,9.61
2022-10-03T05:22:37.376Z,9.68
2022-10-03T05:32:37.391Z,9.73
2022-10-03T05:42:37.373Z,9.78
2022-10-03T05:52:37.410Z,9.72
2022-10-03T06:02:37.478Z,9.86
2022-10-03T06:12:37.366Z,10
2022-10-03T06:22:37.354Z,9.96
2022-10-03T06:32:37.355Z,10.04
2022-10-03T06:42:37.343Z,10.18
2022-10-03T06:52:37.338Z,10.42
2022-10-03T07:02:37.407Z,10.57
2022-10-03T07:12:37.372Z,10.76
2022-10-03T07:22:37.344Z,10.83
2022-10-03T07:32:37.337Z,10.88
2022-10-03T07:52:37.331Z,11.51
2022-10-03T08:02:37.315Z,12.18
2022-10-03T08:12:37.322Z,13.02
2022-10-03T08:22:37.282Z,12.98
2022-10-03T08:32:37.334Z,13.22
2022-10-03T08:42:37.310Z,13.33
2022-10-03T08:52:37.349Z,13.74
2022-10-03T09:02:37.295Z,14.23
2022-10-03T09:12:37.261Z,14.74
2022-10-03T09:22:37.264Z,14.95
2022-10-03T09:32:37.305Z,15.34
2022-10-03T09:42:37.223Z,15.73
2022-10-03T09:52:37.250Z,17.15
2022-10-03T10:02:37.231Z,18.62
2022-10-03T10:12:37.229Z,19.18
2022-10-03T10:22:37.261Z,19.33
2022-10-03T10:32:37.234Z,19.77
2022-10-03T10:42:37.181Z,20.33
2022-10-03T10:52:37.205Z,20.63
2022-10-03T11:02:37.150Z,20.97
2022-10-03T11:12:37.177Z,20.81
2022-10-03T11:22:37.098Z,21.2
2022-10-03T11:32:37.141Z,21.34
2022-10-03T11:42:37.101Z,20.91
2022-10-03T11:52:37.250Z,20.11
2022-10-03T12:02:37.251Z,20.17
2022-10-03T12:12:37.119Z,19.51
2022-10-03T12:22:37.075Z,19.39
2022-10-03T12:32:37.085Z,19.45
2022-10-03T12:42:37.055Z,19.45
2022-10-03T12:52:37.087Z,19.24
2022-10-03T13:02:37.127Z,19.28
2022-10-03T13:12:37.058Z,19.39
2022-10-03T13:22:37.010Z,19.37
2022-10-03T13:32:37.050Z,19.27
2022-10-03T13:42:36.986Z,19.3
2022-10-03T13:52:37.008Z,19.34
2022-10-03T14:02:37.063Z,19.39
2022-10-03T14:03:47.094Z,19.38
2022-10-03T14:13:47.146Z,19.39
2022-10-03T14:23:47.126Z,19.38
2022-10-03T14:33:47.144Z,19.32
2022-10-03T14:43:47.104Z,19.23
2022-10-03T14:53:47.160Z,19.11
2022-10-03T15:03:47.134Z,19.02
2022-10-03T15:13:47.101Z,18.81
2022-10-03T15:23:47.059Z,18.58
2022-10-03T15:33:47.093Z,18.3
2022-10-03T15:43:47.061Z,17.81
2022-10-03T15:53:47.140Z,17.43
2022-10-03T16:03:47.015Z,17.08
2022-10-03T16:13:47.066Z,16.53
2022-10-03T16:23:47.021Z,15.91
2022-10-03T16:33:47.037Z,15.05
2022-10-03T16:43:47.008Z,14.55
2022-10-03T16:53:47.027Z,14.06
2022-10-03T17:03:46.987Z,13.65
2022-10-03T17:13:47.009Z,13.38
2022-10-03T17:23:46.980Z,12.9
2022-10-03T17:33:47.006Z,12.38
2022-10-03T17:43:46.969Z,11.82
2022-10-03T17:53:46.979Z,11.43
2022-10-03T18:03:46.951Z,10.96
2022-10-03T18:13:46.970Z,10.55
2022-10-03T18:23:55.555Z,10.39
2022-10-03T18:33:46.969Z,10.18
2022-10-03T18:43:46.923Z,9.87
2022-10-03T18:53:46.948Z,9.66
2022-10-03T19:03:46.921Z,9.45
2022-10-03T19:13:50.559Z,9.34
2022-10-03T19:23:46.955Z,8.91
2022-10-03T19:33:46.953Z,8.85
2022-10-03T19:43:46.899Z,8.72
2022-10-03T19:53:47.007Z,8.53
2022-10-03T20:03:46.889Z,8.37
2022-10-03T20:13:46.922Z,8.11
2022-10-03T20:23:46.904Z,7.89
2022-10-03T20:33:46.936Z,7.75
2022-10-03T20:43:46.906Z,7.49
2022-10-03T20:53:46.890Z,7.32
2022-10-03T21:03:46.877Z,7.19
2022-10-03T21:13:46.920Z,7.02
2022-10-03T21:23:46.863Z,6.97
2022-10-03T21:33:46.917Z,6.97
2022-10-03T21:43:46.898Z,6.74
2022-10-03T21:53:46.882Z,6.59
2022-10-03T22:03:46.871Z,6.62
2022-10-03T22:13:46.892Z,6.47
2022-10-03T22:23:46.880Z,6.31
2022-10-03T22:33:46.902Z,6.16
2022-10-03T22:43:46.869Z,6.02
2022-10-03T22:53:47.022Z,5.79
2022-10-03T23:03:46.902Z,5.78
2022-10-03T23:13:46.901Z,5.76
2022-10-03T23:23:46.884Z,5.64
2022-10-03T23:33:46.901Z,5.39
2022-10-03T23:43:46.870Z,5.24
2022-10-03T23:53:46.902Z,5.26
